sensor_id;sensor_type;location;lat;lon;timestamp;P1;durP1;ratioP1;P2;durP2;ratioP2
18102;SDS011;9178;51.120;6.192;2023-08-12T00:00:31;14.23;;;12.75;;
18102;SDS011;9178;51.120;6.192;2023-08-12T00:02:58;13.27;;;11.90;;
18102;SDS011;9178;51.120;6.192;2023-08-12T00:05:27;17.67;;;13.88;;
18102;SDS011;9178;51.120;6.192;2023-08-12T00:07:54;15.13;;;12.60;;
18102;SDS011;9178;51.120;6.192;2023-08-12T00:10:21;12.82;;;10.93;;
18102;SDS011;9178;51.120;6.192;2023-08-12T00:12:50;13.30;;;11.93;;
18102;SDS011;9178;51.120;6.192;2023-08-12T00:15:17;16.75;;;11.70;;
18102;SDS011;9178;51.120;6.192;2023-08-12T00:17:44;11.98;;;10.43;;
18102;SDS011;9178;51.120;6.192;2023-08-12T00:20:11;11.80;;;10.80;;
18102;SDS011;9178;51.120;6.192;2023-08-12T00:22:41;9.77;;;8.88;;
18102;SDS011;9178;51.120;6.192;2023-08-12T00:25:08;10.85;;;9.38;;
18102;SDS011;9178;51.120;6.192;2023-08-12T00:27:35;12.10;;;10.75;;
18102;SDS011;9178;51.120;6.192;2023-08-12T00:30:04;10.45;;;9.50;;
18102;SDS011;9178;51.120;6.192;2023-08-12T00:32:31;15.00;;;12.68;;
18102;SDS011;9178;51.120;6.192;2023-08-12T00:35:00;15.77;;;11.20;;
18102;SDS011;9178;51.120;6.192;2023-08-12T00:37:28;13.45;;;11.55;;
18102;SDS011;9178;51.120;6.192;2023-08-12T00:39:58;13.43;;;12.23;;
18102;SDS011;9178;51.120;6.192;2023-08-12T00:42:25;14.13;;;11.68;;
18102;SDS011;9178;51.120;6.192;2023-08-12T00:44:52;13.38;;;12.07;;
18102;SDS011;9178;51.120;6.192;2023-08-12T00:47:19;12.45;;;11.13;;
18102;SDS011;9178;51.120;6.192;2023-08-12T00:49:47;14.88;;;12.95;;
18102;SDS011;9178;51.120;6.192;2023-08-12T00:52:14;14.68;;;13.18;;
18102;SDS011;9178;51.120;6.192;2023-08-12T00:54:43;14.13;;;12.68;;
18102;SDS011;9178;51.120;6.192;2023-08-12T00:57:11;12.43;;;11.23;;
18102;SDS011;9178;51.120;6.192;2023-08-12T00:59:38;16.02;;;11.15;;
18102;SDS011;9178;51.120;6.192;2023-08-12T01:02:07;14.63;;;11.60;;
18102;SDS011;9178;51.120;6.192;2023-08-12T01:04:34;18.85;;;16.05;;
18102;SDS011;9178;51.120;6.192;2023-08-12T01:07:01;16.40;;;13.23;;
18102;SDS011;9178;51.120;6.192;2023-08-12T01:09:28;13.85;;;12.45;;
18102;SDS011;9178;51.120;6.192;2023-08-12T01:11:57;13.23;;;12.02;;
18102;SDS011;9178;51.120;6.192;2023-08-12T01:14:33;19.33;;;17.25;;
18102;SDS011;9178;51.120;6.192;2023-08-12T01:17:06;15.63;;;14.05;;
18102;SDS011;9178;51.120;6.192;2023-08-12T01:19:35;16.63;;;14.70;;
18102;SDS011;9178;51.120;6.192;2023-08-12T01:22:04;16.88;;;15.15;;
18102;SDS011;9178;51.120;6.192;2023-08-12T01:24:35;23.52;;;18.15;;
18102;SDS011;9178;51.120;6.192;2023-08-12T01:27:05;25.50;;;18.15;;
18102;SDS011;9178;51.120;6.192;2023-08-12T01:29:38;18.25;;;15.85;;
18102;SDS011;9178;51.120;6.192;2023-08-12T01:32:11;17.30;;;14.95;;
18102;SDS011;9178;51.120;6.192;2023-08-12T01:34:45;17.45;;;15.65;;
18102;SDS011;9178;51.120;6.192;2023-08-12T01:37:17;22.05;;;18.90;;
18102;SDS011;9178;51.120;6.192;2023-08-12T01:39:50;17.45;;;15.70;;
18102;SDS011;9178;51.120;6.192;2023-08-12T01:42:20;16.92;;;14.07;;
18102;SDS011;9178;51.120;6.192;2023-08-12T01:44:47;14.32;;;12.90;;
18102;SDS011;9178;51.120;6.192;2023-08-12T01:47:17;18.00;;;16.13;;
18102;SDS011;9178;51.120;6.192;2023-08-12T01:49:43;20.50;;;17.48;;
18102;SDS011;9178;51.120;6.192;2023-08-12T01:52:10;18.98;;;16.98;;
18102;SDS011;9178;51.120;6.192;2023-08-12T01:54:37;16.77;;;14.60;;
18102;SDS011;9178;51.120;6.192;2023-08-12T01:57:06;17.50;;;15.52;;
18102;SDS011;9178;51.120;6.192;2023-08-12T01:59:34;19.38;;;17.33;;
18102;SDS011;9178;51.120;6.192;2023-08-12T02:02:01;22.30;;;17.67;;
18102;SDS011;9178;51.120;6.192;2023-08-12T02:04:31;20.77;;;16.77;;
18102;SDS011;9178;51.120;6.192;2023-08-12T02:06:59;16.77;;;15.10;;
18102;SDS011;9178;51.120;6.192;2023-08-12T02:09:25;16.35;;;14.75;;
18102;SDS011;9178;51.120;6.192;2023-08-12T02:11:52;16.88;;;15.10;;
18102;SDS011;9178;51.120;6.192;2023-08-12T02:14:20;18.05;;;15.88;;
18102;SDS011;9178;51.120;6.192;2023-08-12T02:16:47;14.98;;;13.50;;
18102;SDS011;9178;51.120;6.192;2023-08-12T02:19:14;15.38;;;13.98;;
18102;SDS011;9178;51.120;6.192;2023-08-12T02:21:41;22.98;;;17.40;;
18102;SDS011;9178;51.120;6.192;2023-08-12T02:24:08;18.35;;;16.48;;
18102;SDS011;9178;51.120;6.192;2023-08-12T02:26:36;17.80;;;15.98;;
18102;SDS011;9178;51.120;6.192;2023-08-12T02:29:03;17.00;;;15.30;;
18102;SDS011;9178;51.120;6.192;2023-08-12T02:31:32;16.20;;;14.32;;
18102;SDS011;9178;51.120;6.192;2023-08-12T02:33:58;16.60;;;13.88;;
18102;SDS011;9178;51.120;6.192;2023-08-12T02:36:25;13.55;;;12.15;;
18102;SDS011;9178;51.120;6.192;2023-08-12T02:38:52;15.90;;;14.15;;
18102;SDS011;9178;51.120;6.192;2023-08-12T02:41:19;18.42;;;14.48;;
18102;SDS011;9178;51.120;6.192;2023-08-12T02:43:46;15.20;;;13.85;;
18102;SDS011;9178;51.120;6.192;2023-08-12T02:46:13;22.55;;;14.85;;
18102;SDS011;9178;51.120;6.192;2023-08-12T02:48:43;13.90;;;12.30;;
18102;SDS011;9178;51.120;6.192;2023-08-12T02:51:12;14.23;;;12.88;;
18102;SDS011;9178;51.120;6.192;2023-08-12T02:53:39;19.70;;;17.70;;
18102;SDS011;9178;51.120;6.192;2023-08-12T02:56:06;15.07;;;13.65;;
18102;SDS011;9178;51.120;6.192;2023-08-12T02:58:33;18.17;;;16.02;;
18102;SDS011;9178;51.120;6.192;2023-08-12T03:01:00;17.40;;;15.70;;
18102;SDS011;9178;51.120;6.192;2023-08-12T03:03:29;21.48;;;15.35;;
18102;SDS011;9178;51.120;6.192;2023-08-12T03:05:57;15.20;;;13.60;;
18102;SDS011;9178;51.120;6.192;2023-08-12T03:08:23;13.93;;;11.73;;
18102;SDS011;9178;51.120;6.192;2023-08-12T03:10:50;15.98;;;13.45;;
18102;SDS011;9178;51.120;6.192;2023-08-12T03:13:24;22.30;;;16.00;;
18102;SDS011;9178;51.120;6.192;2023-08-12T03:15:51;17.17;;;14.57;;
18102;SDS011;9178;51.120;6.192;2023-08-12T03:18:18;19.38;;;15.45;;
18102;SDS011;9178;51.120;6.192;2023-08-12T03:20:46;17.23;;;15.52;;
18102;SDS011;9178;51.120;6.192;2023-08-12T03:23:14;16.88;;;15.13;;
18102;SDS011;9178;51.120;6.192;2023-08-12T03:25:41;16.95;;;14.43;;
18102;SDS011;9178;51.120;6.192;2023-08-12T03:28:08;17.08;;;15.23;;
18102;SDS011;9178;51.120;6.192;2023-08-12T03:30:35;18.88;;;16.27;;
18102;SDS011;9178;51.120;6.192;2023-08-12T03:33:02;21.27;;;16.73;;
18102;SDS011;9178;51.120;6.192;2023-08-12T03:35:29;22.77;;;16.42;;
18102;SDS011;9178;51.120;6.192;2023-08-12T03:37:56;19.30;;;17.35;;
18102;SDS011;9178;51.120;6.192;2023-08-12T03:40:24;18.83;;;16.25;;
18102;SDS011;9178;51.120;6.192;2023-08-12T03:42:51;37.05;;;17.38;;
18102;SDS011;9178;51.120;6.192;2023-08-12T03:45:18;15.98;;;14.38;;
18102;SDS011;9178;51.120;6.192;2023-08-12T03:47:45;16.70;;;15.02;;
18102;SDS011;9178;51.120;6.192;2023-08-12T03:50:12;15.98;;;13.18;;
18102;SDS011;9178;51.120;6.192;2023-08-12T03:52:39;13.55;;;12.15;;
18102;SDS011;9178;51.120;6.192;2023-08-12T03:55:06;18.30;;;12.52;;
18102;SDS011;9178;51.120;6.192;2023-08-12T03:57:36;15.55;;;13.90;;
18102;SDS011;9178;51.120;6.192;2023-08-12T04:00:03;19.90;;;13.23;;
18102;SDS011;9178;51.120;6.192;2023-08-12T04:02:33;16.35;;;14.10;;
18102;SDS011;9178;51.120;6.192;2023-08-12T04:04:59;17.80;;;15.32;;
18102;SDS011;9178;51.120;6.192;2023-08-12T04:07:26;17.15;;;15.07;;
18102;SDS011;9178;51.120;6.192;2023-08-12T04:09:53;16.13;;;13.30;;
18102;SDS011;9178;51.120;6.192;2023-08-12T04:12:20;14.23;;;12.77;;
18102;SDS011;9178;51.120;6.192;2023-08-12T04:14:48;18.27;;;14.48;;
18102;SDS011;9178;51.120;6.192;2023-08-12T04:17:15;18.70;;;16.35;;
18102;SDS011;9178;51.120;6.192;2023-08-12T04:19:42;21.73;;;15.35;;
18102;SDS011;9178;51.120;6.192;2023-08-12T04:22:10;18.65;;;14.30;;
18102;SDS011;9178;51.120;6.192;2023-08-12T04:24:37;18.20;;;14.55;;
18102;SDS011;9178;51.120;6.192;2023-08-12T04:27:04;20.95;;;16.42;;
18102;SDS011;9178;51.120;6.192;2023-08-12T04:29:31;21.38;;;14.90;;
18102;SDS011;9178;51.120;6.192;2023-08-12T04:31:59;22.27;;;15.73;;
18102;SDS011;9178;51.120;6.192;2023-08-12T04:34:26;18.90;;;15.23;;
18102;SDS011;9178;51.120;6.192;2023-08-12T04:36:53;16.77;;;14.43;;
18102;SDS011;9178;51.120;6.192;2023-08-12T04:39:20;17.73;;;12.48;;
18102;SDS011;9178;51.120;6.192;2023-08-12T04:41:48;19.98;;;14.70;;
18102;SDS011;9178;51.120;6.192;2023-08-12T04:44:16;17.90;;;15.57;;
18102;SDS011;9178;51.120;6.192;2023-08-12T04:46:43;22.23;;;15.13;;
18102;SDS011;9178;51.120;6.192;2023-08-12T04:49:13;17.65;;;13.98;;
18102;SDS011;9178;51.120;6.192;2023-08-12T04:51:39;15.45;;;13.85;;
18102;SDS011;9178;51.120;6.192;2023-08-12T04:54:07;14.85;;;12.75;;
18102;SDS011;9178;51.120;6.192;2023-08-12T04:56:34;15.32;;;13.68;;
18102;SDS011;9178;51.120;6.192;2023-08-12T04:59:02;18.00;;;14.45;;
18102;SDS011;9178;51.120;6.192;2023-08-12T05:01:29;17.63;;;13.23;;
18102;SDS011;9178;51.120;6.192;2023-08-12T05:03:56;18.70;;;13.40;;
18102;SDS011;9178;51.120;6.192;2023-08-12T05:06:25;17.00;;;13.18;;
18102;SDS011;9178;51.120;6.192;2023-08-12T05:08:52;20.60;;;12.38;;
18102;SDS011;9178;51.120;6.192;2023-08-12T05:11:19;13.43;;;12.07;;
18102;SDS011;9178;51.120;6.192;2023-08-12T05:13:45;21.95;;;13.40;;
18102;SDS011;9178;51.120;6.192;2023-08-12T05:16:14;15.68;;;12.30;;
18102;SDS011;9178;51.120;6.192;2023-08-12T05:18:41;18.55;;;13.63;;
18102;SDS011;9178;51.120;6.192;2023-08-12T05:21:08;19.08;;;12.70;;
18102;SDS011;9178;51.120;6.192;2023-08-12T05:23:37;19.02;;;12.07;;
18102;SDS011;9178;51.120;6.192;2023-08-12T05:26:04;13.13;;;10.90;;
18102;SDS011;9178;51.120;6.192;2023-08-12T05:28:30;16.80;;;11.88;;
18102;SDS011;9178;51.120;6.192;2023-08-12T05:30:57;15.27;;;10.23;;
18102;SDS011;9178;51.120;6.192;2023-08-12T05:33:24;16.02;;;10.30;;
18102;SDS011;9178;51.120;6.192;2023-08-12T05:35:51;16.65;;;9.70;;
18102;SDS011;9178;51.120;6.192;2023-08-12T05:38:18;21.73;;;10.55;;
18102;SDS011;9178;51.120;6.192;2023-08-12T05:40:46;16.55;;;12.43;;
18102;SDS011;9178;51.120;6.192;2023-08-12T05:43:13;20.60;;;12.00;;
18102;SDS011;9178;51.120;6.192;2023-08-12T05:45:40;20.48;;;13.52;;
18102;SDS011;9178;51.120;6.192;2023-08-12T05:48:07;18.63;;;13.50;;
18102;SDS011;9178;51.120;6.192;2023-08-12T05:50:34;16.88;;;11.40;;
18102;SDS011;9178;51.120;6.192;2023-08-12T05:53:02;12.65;;;10.45;;
18102;SDS011;9178;51.120;6.192;2023-08-12T05:55:29;22.70;;;10.65;;
18102;SDS011;9178;51.120;6.192;2023-08-12T05:57:57;9.52;;;7.88;;
18102;SDS011;9178;51.120;6.192;2023-08-12T06:00:24;13.07;;;7.65;;
18102;SDS011;9178;51.120;6.192;2023-08-12T06:02:51;10.68;;;5.93;;
18102;SDS011;9178;51.120;6.192;2023-08-12T06:05:18;10.70;;;6.53;;
18102;SDS011;9178;51.120;6.192;2023-08-12T06:07:50;10.48;;;5.00;;
18102;SDS011;9178;51.120;6.192;2023-08-12T06:10:17;17.77;;;6.70;;
18102;SDS011;9178;51.120;6.192;2023-08-12T06:12:44;11.18;;;5.15;;
18102;SDS011;9178;51.120;6.192;2023-08-12T06:15:12;9.55;;;4.80;;
18102;SDS011;9178;51.120;6.192;2023-08-12T06:17:41;9.43;;;4.82;;
18102;SDS011;9178;51.120;6.192;2023-08-12T06:20:09;9.82;;;5.35;;
18102;SDS011;9178;51.120;6.192;2023-08-12T06:22:36;6.57;;;4.68;;
18102;SDS011;9178;51.120;6.192;2023-08-12T06:25:06;10.18;;;4.35;;
18102;SDS011;9178;51.120;6.192;2023-08-12T06:27:33;9.23;;;4.30;;
18102;SDS011;9178;51.120;6.192;2023-08-12T06:30:00;7.53;;;4.32;;
18102;SDS011;9178;51.120;6.192;2023-08-12T06:32:28;5.00;;;4.00;;
18102;SDS011;9178;51.120;6.192;2023-08-12T06:34:55;6.25;;;3.80;;
18102;SDS011;9178;51.120;6.192;2023-08-12T06:37:22;6.35;;;3.30;;
18102;SDS011;9178;51.120;6.192;2023-08-12T06:39:49;3.20;;;2.90;;
18102;SDS011;9178;51.120;6.192;2023-08-12T06:42:16;6.18;;;3.60;;
18102;SDS011;9178;51.120;6.192;2023-08-12T06:44:42;7.38;;;3.78;;
18102;SDS011;9178;51.120;6.192;2023-08-12T06:47:09;3.95;;;3.17;;
18102;SDS011;9178;51.120;6.192;2023-08-12T06:49:38;5.57;;;3.10;;
18102;SDS011;9178;51.120;6.192;2023-08-12T06:52:05;4.60;;;3.50;;
18102;SDS011;9178;51.120;6.192;2023-08-12T06:54:32;6.28;;;3.28;;
18102;SDS011;9178;51.120;6.192;2023-08-12T06:56:58;6.57;;;3.28;;
18102;SDS011;9178;51.120;6.192;2023-08-12T06:59:32;4.88;;;2.78;;
18102;SDS011;9178;51.120;6.192;2023-08-12T07:01:59;5.53;;;3.03;;
18102;SDS011;9178;51.120;6.192;2023-08-12T07:04:26;4.90;;;2.60;;
18102;SDS011;9178;51.120;6.192;2023-08-12T07:06:55;3.20;;;2.90;;
18102;SDS011;9178;51.120;6.192;2023-08-12T07:09:22;3.85;;;2.70;;
18102;SDS011;9178;51.120;6.192;2023-08-12T07:11:48;4.93;;;2.60;;
18102;SDS011;9178;51.120;6.192;2023-08-12T07:14:16;5.20;;;2.63;;
18102;SDS011;9178;51.120;6.192;2023-08-12T07:16:43;3.92;;;2.13;;
18102;SDS011;9178;51.120;6.192;2023-08-12T07:19:09;2.67;;;2.10;;
18102;SDS011;9178;51.120;6.192;2023-08-12T07:21:50;6.00;;;2.38;;
18102;SDS011;9178;51.120;6.192;2023-08-12T07:24:18;4.53;;;2.17;;
18102;SDS011;9178;51.120;6.192;2023-08-12T07:26:48;2.50;;;2.15;;
18102;SDS011;9178;51.120;6.192;2023-08-12T07:29:15;5.95;;;2.20;;
18102;SDS011;9178;51.120;6.192;2023-08-12T07:31:42;3.80;;;2.45;;
18102;SDS011;9178;51.120;6.192;2023-08-12T07:34:09;2.88;;;2.08;;
18102;SDS011;9178;51.120;6.192;2023-08-12T07:36:38;3.33;;;1.95;;
18102;SDS011;9178;51.120;6.192;2023-08-12T07:39:05;3.75;;;2.35;;
18102;SDS011;9178;51.120;6.192;2023-08-12T07:41:33;2.53;;;1.95;;
18102;SDS011;9178;51.120;6.192;2023-08-12T07:44:00;2.28;;;1.70;;
18102;SDS011;9178;51.120;6.192;2023-08-12T07:46:27;1.83;;;1.60;;
18102;SDS011;9178;51.120;6.192;2023-08-12T07:48:54;2.22;;;1.85;;
18102;SDS011;9178;51.120;6.192;2023-08-12T07:51:21;2.75;;;1.83;;
18102;SDS011;9178;51.120;6.192;2023-08-12T07:53:48;5.38;;;1.67;;
18102;SDS011;9178;51.120;6.192;2023-08-12T07:56:15;1.50;;;1.40;;
18102;SDS011;9178;51.120;6.192;2023-08-12T07:58:43;2.17;;;1.92;;
18102;SDS011;9178;51.120;6.192;2023-08-12T08:01:11;2.45;;;1.60;;
18102;SDS011;9178;51.120;6.192;2023-08-12T08:03:38;1.95;;;1.35;;
18102;SDS011;9178;51.120;6.192;2023-08-12T08:06:05;5.00;;;1.83;;
18102;SDS011;9178;51.120;6.192;2023-08-12T08:08:33;2.20;;;1.45;;
18102;SDS011;9178;51.120;6.192;2023-08-12T08:11:00;2.38;;;1.63;;
18102;SDS011;9178;51.120;6.192;2023-08-12T08:13:28;4.55;;;1.77;;
18102;SDS011;9178;51.120;6.192;2023-08-12T08:15:56;2.92;;;1.45;;
18102;SDS011;9178;51.120;6.192;2023-08-12T08:18:23;3.83;;;1.58;;
18102;SDS011;9178;51.120;6.192;2023-08-12T08:20:50;3.22;;;1.55;;
18102;SDS011;9178;51.120;6.192;2023-08-12T08:23:17;1.70;;;1.60;;
18102;SDS011;9178;51.120;6.192;2023-08-12T08:25:44;2.10;;;1.40;;
18102;SDS011;9178;51.120;6.192;2023-08-12T08:28:11;2.35;;;1.60;;
18102;SDS011;9178;51.120;6.192;2023-08-12T08:30:38;4.15;;;1.70;;
18102;SDS011;9178;51.120;6.192;2023-08-12T08:33:07;4.03;;;1.73;;
18102;SDS011;9178;51.120;6.192;2023-08-12T08:35:42;2.08;;;1.30;;
18102;SDS011;9178;51.120;6.192;2023-08-12T08:38:09;4.00;;;1.40;;
18102;SDS011;9178;51.120;6.192;2023-08-12T08:40:36;3.20;;;1.67;;
18102;SDS011;9178;51.120;6.192;2023-08-12T08:43:04;3.03;;;1.60;;
18102;SDS011;9178;51.120;6.192;2023-08-12T08:45:33;2.30;;;1.70;;
18102;SDS011;9178;51.120;6.192;2023-08-12T08:48:01;1.58;;;1.48;;
18102;SDS011;9178;51.120;6.192;2023-08-12T08:50:32;1.52;;;1.30;;
18102;SDS011;9178;51.120;6.192;2023-08-12T08:52:59;1.73;;;1.17;;
18102;SDS011;9178;51.120;6.192;2023-08-12T08:55:28;2.92;;;1.40;;
18102;SDS011;9178;51.120;6.192;2023-08-12T08:57:56;6.20;;;3.70;;
18102;SDS011;9178;51.120;6.192;2023-08-12T09:00:23;5.78;;;1.67;;
18102;SDS011;9178;51.120;6.192;2023-08-12T09:02:51;2.03;;;1.10;;
18102;SDS011;9178;51.120;6.192;2023-08-12T09:05:19;1.35;;;1.00;;
18102;SDS011;9178;51.120;6.192;2023-08-12T09:07:48;1.63;;;1.30;;
18102;SDS011;9178;51.120;6.192;2023-08-12T09:10:16;1.67;;;1.20;;
18102;SDS011;9178;51.120;6.192;2023-08-12T09:12:45;1.80;;;1.20;;
18102;SDS011;9178;51.120;6.192;2023-08-12T09:15:18;2.35;;;1.48;;
18102;SDS011;9178;51.120;6.192;2023-08-12T09:17:45;1.98;;;1.25;;
18102;SDS011;9178;51.120;6.192;2023-08-12T09:20:11;2.65;;;1.23;;
18102;SDS011;9178;51.120;6.192;2023-08-12T09:22:41;2.13;;;1.20;;
18102;SDS011;9178;51.120;6.192;2023-08-12T09:25:09;1.20;;;1.10;;
18102;SDS011;9178;51.120;6.192;2023-08-12T09:27:37;1.65;;;1.17;;
18102;SDS011;9178;51.120;6.192;2023-08-12T09:30:04;1.30;;;1.20;;
18102;SDS011;9178;51.120;6.192;2023-08-12T09:32:32;1.38;;;1.13;;
18102;SDS011;9178;51.120;6.192;2023-08-12T09:35:00;3.00;;;1.40;;
18102;SDS011;9178;51.120;6.192;2023-08-12T09:37:31;2.95;;;1.23;;
18102;SDS011;9178;51.120;6.192;2023-08-12T09:39:58;2.35;;;1.30;;
18102;SDS011;9178;51.120;6.192;2023-08-12T09:42:26;1.33;;;1.10;;
18102;SDS011;9178;51.120;6.192;2023-08-12T09:44:55;1.73;;;1.30;;
18102;SDS011;9178;51.120;6.192;2023-08-12T09:47:24;2.30;;;1.65;;
18102;SDS011;9178;51.120;6.192;2023-08-12T09:49:51;1.20;;;1.10;;
18102;SDS011;9178;51.120;6.192;2023-08-12T09:52:18;2.85;;;1.10;;
18102;SDS011;9178;51.120;6.192;2023-08-12T09:54:45;2.40;;;1.10;;
18102;SDS011;9178;51.120;6.192;2023-08-12T09:57:18;1.73;;;0.98;;
18102;SDS011;9178;51.120;6.192;2023-08-12T09:59:50;4.80;;;1.30;;
18102;SDS011;9178;51.120;6.192;2023-08-12T10:02:19;1.90;;;1.08;;
18102;SDS011;9178;51.120;6.192;2023-08-12T10:04:47;1.48;;;1.00;;
18102;SDS011;9178;51.120;6.192;2023-08-12T10:07:20;0.98;;;0.90;;
18102;SDS011;9178;51.120;6.192;2023-08-12T10:09:49;2.85;;;1.00;;
18102;SDS011;9178;51.120;6.192;2023-08-12T10:12:16;1.67;;;1.00;;
18102;SDS011;9178;51.120;6.192;2023-08-12T10:14:44;1.75;;;0.68;;
18102;SDS011;9178;51.120;6.192;2023-08-12T10:17:13;0.60;;;0.60;;
18102;SDS011;9178;51.120;6.192;2023-08-12T10:19:43;1.80;;;0.75;;
18102;SDS011;9178;51.120;6.192;2023-08-12T10:22:11;0.80;;;0.50;;
18102;SDS011;9178;51.120;6.192;2023-08-12T10:24:39;1.38;;;0.40;;
18102;SDS011;9178;51.120;6.192;2023-08-12T10:27:09;0.93;;;0.70;;
18102;SDS011;9178;51.120;6.192;2023-08-12T10:29:38;0.77;;;0.65;;
18102;SDS011;9178;51.120;6.192;2023-08-12T10:32:05;1.52;;;0.60;;
18102;SDS011;9178;51.120;6.192;2023-08-12T10:34:33;0.50;;;0.50;;
18102;SDS011;9178;51.120;6.192;2023-08-12T10:37:01;0.82;;;0.52;;
18102;SDS011;9178;51.120;6.192;2023-08-12T10:39:28;2.10;;;0.57;;
18102;SDS011;9178;51.120;6.192;2023-08-12T10:41:57;2.08;;;0.52;;
18102;SDS011;9178;51.120;6.192;2023-08-12T10:44:26;1.02;;;0.63;;
18102;SDS011;9178;51.120;6.192;2023-08-12T10:47:15;2.92;;;0.55;;
18102;SDS011;9178;51.120;6.192;2023-08-12T10:49:49;3.83;;;0.50;;
18102;SDS011;9178;51.120;6.192;2023-08-12T10:52:21;2.03;;;0.60;;
18102;SDS011;9178;51.120;6.192;2023-08-12T10:57:46;0.63;;;0.40;;
18102;SDS011;9178;51.120;6.192;2023-08-12T11:00:14;1.10;;;0.47;;
18102;SDS011;9178;51.120;6.192;2023-08-12T11:02:45;0.85;;;0.30;;
18102;SDS011;9178;51.120;6.192;2023-08-12T11:05:18;1.48;;;0.40;;
18102;SDS011;9178;51.120;6.192;2023-08-12T11:07:46;1.25;;;0.50;;
18102;SDS011;9178;51.120;6.192;2023-08-12T11:10:15;0.80;;;0.40;;
18102;SDS011;9178;51.120;6.192;2023-08-12T11:12:47;0.70;;;0.50;;
18102;SDS011;9178;51.120;6.192;2023-08-12T11:15:28;1.17;;;0.47;;
18102;SDS011;9178;51.120;6.192;2023-08-12T11:17:57;3.33;;;0.60;;
18102;SDS011;9178;51.120;6.192;2023-08-12T11:20:28;3.90;;;0.80;;
18102;SDS011;9178;51.120;6.192;2023-08-12T11:22:56;4.25;;;1.00;;
18102;SDS011;9178;51.120;6.192;2023-08-12T11:25:24;1.48;;;1.38;;
18102;SDS011;9178;51.120;6.192;2023-08-12T11:27:51;1.45;;;1.35;;
18102;SDS011;9178;51.120;6.192;2023-08-12T11:30:19;4.35;;;1.60;;
18102;SDS011;9178;51.120;6.192;2023-08-12T11:32:49;1.70;;;1.60;;
18102;SDS011;9178;51.120;6.192;2023-08-12T11:35:17;3.22;;;2.53;;
18102;SDS011;9178;51.120;6.192;2023-08-12T11:37:49;2.75;;;2.55;;
18102;SDS011;9178;51.120;6.192;2023-08-12T11:40:20;3.33;;;2.28;;
18102;SDS011;9178;51.120;6.192;2023-08-12T11:42:51;4.00;;;2.22;;
18102;SDS011;9178;51.120;6.192;2023-08-12T11:45:19;4.28;;;2.45;;
18102;SDS011;9178;51.120;6.192;2023-08-12T11:47:47;4.78;;;3.53;;
18102;SDS011;9178;51.120;6.192;2023-08-12T11:50:17;4.70;;;3.50;;
18102;SDS011;9178;51.120;6.192;2023-08-12T11:52:47;3.20;;;3.00;;
18102;SDS011;9178;51.120;6.192;2023-08-12T11:55:15;4.30;;;3.25;;
18102;SDS011;9178;51.120;6.192;2023-08-12T11:57:44;4.25;;;3.50;;
18102;SDS011;9178;51.120;6.192;2023-08-12T12:00:13;7.03;;;4.03;;
18102;SDS011;9178;51.120;6.192;2023-08-12T12:02:41;4.10;;;3.80;;
18102;SDS011;9178;51.120;6.192;2023-08-12T12:05:12;4.53;;;4.15;;
18102;SDS011;9178;51.120;6.192;2023-08-12T12:07:39;3.92;;;3.65;;
18102;SDS011;9178;51.120;6.192;2023-08-12T12:10:12;5.53;;;4.15;;
18102;SDS011;9178;51.120;6.192;2023-08-12T12:12:40;3.85;;;3.58;;
18102;SDS011;9178;51.120;6.192;2023-08-12T12:15:08;4.20;;;3.80;;
18102;SDS011;9178;51.120;6.192;2023-08-12T12:17:38;7.03;;;4.40;;
18102;SDS011;9178;51.120;6.192;2023-08-12T12:20:06;5.43;;;3.88;;
18102;SDS011;9178;51.120;6.192;2023-08-12T12:22:35;4.82;;;4.28;;
18102;SDS011;9178;51.120;6.192;2023-08-12T12:25:05;7.30;;;4.45;;
18102;SDS011;9178;51.120;6.192;2023-08-12T12:27:36;6.55;;;4.25;;
18102;SDS011;9178;51.120;6.192;2023-08-12T12:30:03;4.05;;;3.33;;
18102;SDS011;9178;51.120;6.192;2023-08-12T12:32:31;4.60;;;4.15;;
18102;SDS011;9178;51.120;6.192;2023-08-12T12:35:00;7.55;;;3.10;;
18102;SDS011;9178;51.120;6.192;2023-08-12T12:37:28;2.15;;;1.95;;
18102;SDS011;9178;51.120;6.192;2023-08-12T12:39:57;4.50;;;2.55;;
18102;SDS011;9178;51.120;6.192;2023-08-12T12:42:33;4.38;;;2.33;;
18102;SDS011;9178;51.120;6.192;2023-08-12T12:45:05;2.92;;;2.35;;
18102;SDS011;9178;51.120;6.192;2023-08-12T12:47:32;3.25;;;2.30;;
18102;SDS011;9178;51.120;6.192;2023-08-12T12:50:01;5.47;;;2.70;;
18102;SDS011;9178;51.120;6.192;2023-08-12T12:52:28;2.42;;;2.30;;
18102;SDS011;9178;51.120;6.192;2023-08-12T12:54:55;2.50;;;2.40;;
18102;SDS011;9178;51.120;6.192;2023-08-12T12:57:22;2.28;;;2.17;;
18102;SDS011;9178;51.120;6.192;2023-08-12T12:59:54;4.95;;;2.72;;
18102;SDS011;9178;51.120;6.192;2023-08-12T13:02:20;2.45;;;2.20;;
18102;SDS011;9178;51.120;6.192;2023-08-12T13:04:47;3.72;;;2.10;;
18102;SDS011;9178;51.120;6.192;2023-08-12T13:07:15;2.80;;;2.03;;
18102;SDS011;9178;51.120;6.192;2023-08-12T13:09:41;2.00;;;1.90;;
18102;SDS011;9178;51.120;6.192;2023-08-12T13:12:08;3.45;;;1.67;;
18102;SDS011;9178;51.120;6.192;2023-08-12T13:14:35;1.98;;;1.77;;
18102;SDS011;9178;51.120;6.192;2023-08-12T13:17:05;3.38;;;1.85;;
18102;SDS011;9178;51.120;6.192;2023-08-12T13:19:31;1.50;;;1.40;;
18102;SDS011;9178;51.120;6.192;2023-08-12T13:21:58;3.88;;;1.52;;
18102;SDS011;9178;51.120;6.192;2023-08-12T13:24:27;2.60;;;0.90;;
18102;SDS011;9178;51.120;6.192;2023-08-12T13:26:53;2.50;;;1.08;;
18102;SDS011;9178;51.120;6.192;2023-08-12T13:29:20;0.80;;;0.80;;
18102;SDS011;9178;51.120;6.192;2023-08-12T13:31:47;1.35;;;0.88;;
18102;SDS011;9178;51.120;6.192;2023-08-12T13:34:15;7.53;;;1.10;;
18102;SDS011;9178;51.120;6.192;2023-08-12T13:36:42;15.30;;;2.10;;
18102;SDS011;9178;51.120;6.192;2023-08-12T13:39:09;7.30;;;1.02;;
18102;SDS011;9178;51.120;6.192;2023-08-12T13:41:36;1.70;;;0.68;;
18102;SDS011;9178;51.120;6.192;2023-08-12T13:44:03;1.42;;;0.75;;
18102;SDS011;9178;51.120;6.192;2023-08-12T13:46:30;1.67;;;0.60;;
18102;SDS011;9178;51.120;6.192;2023-08-12T13:48:57;2.13;;;0.85;;
18102;SDS011;9178;51.120;6.192;2023-08-12T13:51:25;11.32;;;1.75;;
18102;SDS011;9178;51.120;6.192;2023-08-12T13:53:52;16.83;;;2.13;;
18102;SDS011;9178;51.120;6.192;2023-08-12T13:56:19;13.32;;;1.85;;
18102;SDS011;9178;51.120;6.192;2023-08-12T13:58:46;3.67;;;1.38;;
18102;SDS011;9178;51.120;6.192;2023-08-12T14:01:13;11.77;;;1.67;;
18102;SDS011;9178;51.120;6.192;2023-08-12T14:03:40;25.52;;;2.65;;
18102;SDS011;9178;51.120;6.192;2023-08-12T14:06:07;14.80;;;2.60;;
18102;SDS011;9178;51.120;6.192;2023-08-12T14:08:35;1.63;;;0.52;;
18102;SDS011;9178;51.120;6.192;2023-08-12T14:11:02;5.70;;;1.00;;
18102;SDS011;9178;51.120;6.192;2023-08-12T14:13:29;0.73;;;0.60;;
18102;SDS011;9178;51.120;6.192;2023-08-12T14:15:56;8.63;;;1.35;;
18102;SDS011;9178;51.120;6.192;2023-08-12T14:18:23;1.27;;;0.77;;
18102;SDS011;9178;51.120;6.192;2023-08-12T14:20:50;4.20;;;1.02;;
18102;SDS011;9178;51.120;6.192;2023-08-12T14:23:17;8.38;;;1.58;;
18102;SDS011;9178;51.120;6.192;2023-08-12T14:25:45;41.88;;;4.35;;
18102;SDS011;9178;51.120;6.192;2023-08-12T14:28:12;8.23;;;1.42;;
18102;SDS011;9178;51.120;6.192;2023-08-12T14:30:39;2.75;;;1.00;;
18102;SDS011;9178;51.120;6.192;2023-08-12T14:33:06;14.07;;;1.83;;
18102;SDS011;9178;51.120;6.192;2023-08-12T14:35:36;15.88;;;2.03;;
18102;SDS011;9178;51.120;6.192;2023-08-12T14:38:03;1.20;;;1.05;;
18102;SDS011;9178;51.120;6.192;2023-08-12T14:40:30;12.82;;;1.70;;
18102;SDS011;9178;51.120;6.192;2023-08-12T14:42:58;18.23;;;2.55;;
18102;SDS011;9178;51.120;6.192;2023-08-12T14:45:25;22.23;;;2.17;;
18102;SDS011;9178;51.120;6.192;2023-08-12T14:47:52;9.75;;;1.60;;
18102;SDS011;9178;51.120;6.192;2023-08-12T14:50:19;8.20;;;1.50;;
18102;SDS011;9178;51.120;6.192;2023-08-12T14:52:49;13.70;;;1.90;;
18102;SDS011;9178;51.120;6.192;2023-08-12T14:55:16;14.02;;;1.83;;
18102;SDS011;9178;51.120;6.192;2023-08-12T14:57:43;12.00;;;1.67;;